Connecticut State Prison, Connecticut
Current Conditions -  °F | °C
As of 10:51 AM on Tuesday 21 Oct 2014 (Local Time) from KBDL Reporting Station
Broken Clouds Broken Clouds  
Wind Chill: 57°   Ceiling: 9000
Heat Index: 57°   Visibility: 10mi
Dew Point: 45°   Wind: 0mph
Humidity: 64%   Direction: NA
Pressure: 29.93"   Gusts: NA
Location:  41.9956°N, 72.451°W
Report Text: KBDL 211451Z 00000KT 10SM FEW030 FEW050 BKN090 BKN250 14/07 A2993 RMK AO2 SLP136 T01390072 58001
Loading
Personal Weather Stations






























Interactive Weather Map
Tropical Storm Tracking
New forecast layout! Learn more

10-Day Weather Forecast

Advertisements
Track Severe Weather on mobile